Time;durP1;ratioP1;P1;durP2;ratioP2;P2;SDS_P1;SDS_P2;PMS_P1;PMS_P2;Temp;Humidity;BMP_temperature;BMP_pressure;BME280_temperature;BME280_humidity;BME280_pressure;Samples;Min_cycle;Max_cycle;Signal;HPM_P1;HPM_P2
2023/09/07 00:01:08;;;;;;;13.90;6.30;;;14.80;99.90;;;;;;5064651;28;20485;-67
2023/09/07 00:03:40;;;;;;;11.60;6.20;;;14.70;99.90;;;;;;5064388;28;20952;-67
2023/09/07 00:06:10;;;;;;;10.03;5.30;;;14.60;99.90;;;;;;5066866;28;20439;-68
2023/09/07 00:08:38;;;;;;;11.60;6.30;;;14.60;99.90;;;;;;5066709;28;20465;-68
2023/09/07 00:11:09;;;;;;;14.03;6.57;;;14.50;99.90;;;;;;5066777;28;20468;-68
2023/09/07 00:13:37;;;;;;;11.80;6.47;;;14.50;99.90;;;;;;5066944;28;20443;-68
2023/09/07 00:16:07;;;;;;;11.50;6.00;;;14.40;99.90;;;;;;5066504;28;20836;-67
2023/09/07 00:18:35;;;;;;;12.00;6.03;;;14.30;99.90;;;;;;5066927;28;20460;-68
2023/09/07 00:21:03;;;;;;;13.67;6.87;;;14.10;99.90;;;;;;5066192;28;20474;-67
2023/09/07 00:23:31;;;;;;;11.77;6.10;;;14.00;99.90;;;;;;5066907;28;20450;-68
2023/09/07 00:25:59;;;;;;;11.97;6.80;;;14.10;99.90;;;;;;5060197;28;20534;-67
2023/09/07 00:28:28;;;;;;;12.67;6.70;;;14.00;99.90;;;;;;5071109;28;20499;-68
2023/09/07 00:30:57;;;;;;;12.73;6.00;;;14.00;99.90;;;;;;5070881;28;20435;-68
2023/09/07 00:33:25;;;;;;;12.23;7.10;;;13.90;99.90;;;;;;5070199;28;20432;-67
2023/09/07 00:35:53;;;;;;;10.90;6.00;;;14.00;99.90;;;;;;5070923;28;20443;-68
2023/09/07 00:38:21;;;;;;;12.47;5.60;;;13.90;99.90;;;;;;5070821;28;20491;-68
2023/09/07 00:40:49;;;;;;;12.03;6.47;;;13.90;99.90;;;;;;5070466;28;20829;-68
2023/09/07 00:43:16;;;;;;;12.50;7.37;;;13.90;99.90;;;;;;5070056;28;20443;-69
2023/09/07 00:45:46;;;;;;;11.90;6.93;;;13.80;99.90;;;;;;5069773;28;20446;-71
2023/09/07 00:48:15;;;;;;;11.33;6.80;;;13.90;99.90;;;;;;5069263;28;20981;-68
2023/09/07 00:50:44;;;;;;;13.00;5.87;;;14.00;99.90;;;;;;5070278;28;20530;-68
2023/09/07 00:53:12;;;;;;;11.07;6.00;;;13.90;99.90;;;;;;5070225;28;20451;-68
2023/09/07 00:55:40;;;;;;;13.13;6.90;;;13.90;99.90;;;;;;5062969;28;20476;-69
2023/09/07 00:58:08;;;;;;;13.27;6.67;;;13.90;99.90;;;;;;5070899;28;20470;-69
2023/09/07 01:00:37;;;;;;;11.93;6.40;;;13.90;99.90;;;;;;5071051;28;20642;-68
2023/09/07 01:03:06;;;;;;;13.20;6.60;;;13.90;99.90;;;;;;5072489;28;20439;-69
2023/09/07 01:05:44;;;;;;;14.03;7.00;;;13.80;99.90;;;;;;5066041;28;20501;-69
2023/09/07 01:08:19;;;;;;;11.40;6.07;;;13.80;99.90;;;;;;5072046;28;20459;-68
2023/09/07 01:10:47;;;;;;;13.23;7.00;;;13.80;99.90;;;;;;5070674;28;20454;-70
2023/09/07 01:13:15;;;;;;;13.57;7.40;;;13.80;99.90;;;;;;5070033;28;20480;-70
2023/09/07 01:15:43;;;;;;;11.30;6.07;;;13.80;99.90;;;;;;5071072;28;20934;-71
2023/09/07 01:18:13;;;;;;;16.13;6.40;;;13.80;99.90;;;;;;5072529;28;20474;-70
2023/09/07 01:20:53;;;;;;;11.67;6.20;;;13.80;99.90;;;;;;5072405;28;20561;-70
2023/09/07 01:23:23;;;;;;;12.93;6.67;;;13.70;99.90;;;;;;5072145;28;21165;-69
2023/09/07 01:25:53;;;;;;;12.63;6.60;;;13.70;99.90;;;;;;5072500;28;20441;-70
2023/09/07 01:28:21;;;;;;;12.83;5.87;;;13.90;99.90;;;;;;5072362;28;20466;-69
2023/09/07 01:30:49;;;;;;;11.03;6.30;;;13.90;99.90;;;;;;5072261;28;20439;-70
2023/09/07 01:33:16;;;;;;;11.33;5.83;;;13.80;99.90;;;;;;5071888;28;20439;-70
2023/09/07 01:35:45;;;;;;;12.00;6.30;;;13.80;99.90;;;;;;5072381;28;20472;-69
2023/09/07 01:38:13;;;;;;;10.93;5.60;;;13.70;99.90;;;;;;5071188;28;20463;-70
2023/09/07 01:40:43;;;;;;;11.77;5.80;;;13.60;99.90;;;;;;5072369;28;20925;-70
2023/09/07 01:43:11;;;;;;;10.83;5.70;;;13.70;99.90;;;;;;5071838;28;20451;-69
2023/09/07 01:45:39;;;;;;;11.83;6.03;;;13.70;99.90;;;;;;5071719;28;20464;-69
2023/09/07 01:48:10;;;;;;;10.77;5.20;;;13.60;99.90;;;;;;5071803;28;20496;-68
2023/09/07 01:50:38;;;;;;;10.90;5.90;;;13.50;99.90;;;;;;5072047;28;20875;-71
2023/09/07 01:53:06;;;;;;;10.50;5.77;;;13.50;99.90;;;;;;5071518;28;20442;-70
2023/09/07 01:55:34;;;;;;;11.83;5.93;;;13.40;99.90;;;;;;5072081;28;20438;-69
2023/09/07 01:58:04;;;;;;;12.30;6.17;;;13.40;99.90;;;;;;5071975;28;20990;-70
2023/09/07 02:00:33;;;;;;;13.90;6.70;;;13.40;99.90;;;;;;5071434;28;20529;-68
2023/09/07 02:03:01;;;;;;;15.27;6.97;;;13.30;99.90;;;;;;5065658;28;20541;-69
2023/09/07 02:05:29;;;;;;;13.93;6.90;;;13.40;99.90;;;;;;5071431;28;20534;-69
2023/09/07 02:07:57;;;;;;;13.70;6.77;;;13.40;99.90;;;;;;5064455;28;20890;-69
2023/09/07 02:10:25;;;;;;;12.63;7.50;;;13.30;99.90;;;;;;5070534;28;20922;-69
2023/09/07 02:12:53;;;;;;;11.53;6.90;;;13.20;99.90;;;;;;5069898;28;20444;-69
2023/09/07 02:15:22;;;;;;;13.07;6.07;;;13.20;99.90;;;;;;5071594;28;20857;-69
2023/09/07 02:17:52;;;;;;;11.20;6.00;;;13.20;99.90;;;;;;5071386;28;20451;-69
2023/09/07 02:20:20;;;;;;;15.00;7.00;;;13.20;99.90;;;;;;5071471;28;21107;-69
2023/09/07 02:22:48;;;;;;;13.97;7.30;;;13.30;99.90;;;;;;5070945;28;20451;-69
2023/09/07 02:25:16;;;;;;;11.47;5.60;;;13.30;99.90;;;;;;5071154;28;20447;-67
2023/09/07 02:27:44;;;;;;;12.30;5.70;;;13.20;99.90;;;;;;5071149;28;20455;-69
2023/09/07 02:30:12;;;;;;;11.00;6.17;;;13.30;99.90;;;;;;5071067;28;20471;-69
2023/09/07 02:32:43;;;;;;;11.30;5.90;;;13.30;99.90;;;;;;5071339;28;20475;-69
2023/09/07 02:35:11;;;;;;;12.33;6.20;;;13.20;99.90;;;;;;5071448;28;20443;-70
2023/09/07 02:37:39;;;;;;;11.63;5.77;;;13.20;99.90;;;;;;5071314;28;20958;-70
2023/09/07 02:40:09;;;;;;;11.83;5.93;;;13.10;99.90;;;;;;5071436;28;20823;-70
2023/09/07 02:42:37;;;;;;;14.40;7.47;;;13.00;99.90;;;;;;5070916;28;20479;-70
2023/09/07 02:45:06;;;;;;;12.47;6.47;;;13.00;99.90;;;;;;5070941;28;20443;-70
2023/09/07 02:47:34;;;;;;;13.20;6.60;;;13.00;99.90;;;;;;5071634;28;20443;-69
2023/09/07 02:50:05;;;;;;;10.47;5.57;;;13.00;99.90;;;;;;5069998;28;20439;-69
2023/09/07 02:52:33;;;;;;;10.83;5.57;;;12.80;99.90;;;;;;5070496;28;20435;-69
2023/09/07 02:55:01;;;;;;;13.50;6.27;;;12.80;99.90;;;;;;5070887;28;20451;-69
2023/09/07 02:57:28;;;;;;;13.77;7.30;;;12.80;99.90;;;;;;5070330;28;20450;-69
2023/09/07 02:59:57;;;;;;;14.10;7.00;;;12.80;99.90;;;;;;5068348;28;20475;-68
2023/09/07 03:02:24;;;;;;;12.60;6.83;;;12.90;99.90;;;;;;5070221;28;20509;-70
2023/09/07 03:04:58;;;;;;;13.53;6.97;;;12.90;99.90;;;;;;5070500;28;20449;-69
2023/09/07 03:07:30;;;;;;;13.97;6.40;;;12.90;99.90;;;;;;5070433;28;20447;-69
2023/09/07 03:09:58;;;;;;;12.53;5.87;;;12.90;99.90;;;;;;5070226;28;20453;-70
2023/09/07 03:12:26;;;;;;;14.20;6.97;;;12.90;99.90;;;;;;5070217;28;20439;-69
2023/09/07 03:14:54;;;;;;;14.50;6.80;;;12.90;99.90;;;;;;5070363;28;20442;-69
2023/09/07 03:17:22;;;;;;;14.53;7.77;;;12.80;99.90;;;;;;5070550;28;20449;-69
2023/09/07 03:19:50;;;;;;;13.53;7.07;;;12.80;99.90;;;;;;5070527;28;20651;-69
2023/09/07 03:22:18;;;;;;;13.27;6.17;;;12.80;99.90;;;;;;5070216;28;20477;-68
2023/09/07 03:24:47;;;;;;;11.70;6.83;;;12.80;99.90;;;;;;5070344;28;20452;-68
2023/09/07 03:27:15;;;;;;;12.70;6.47;;;12.80;99.90;;;;;;5070539;28;20474;-69
2023/09/07 03:29:44;;;;;;;11.83;6.27;;;12.80;99.90;;;;;;5070303;28;20501;-68
2023/09/07 03:32:12;;;;;;;12.23;6.27;;;12.80;99.90;;;;;;5070481;28;20454;-68
2023/09/07 03:34:40;;;;;;;11.60;6.00;;;12.80;99.90;;;;;;5069897;28;20470;-70
2023/09/07 03:37:11;;;;;;;12.17;6.23;;;12.70;99.90;;;;;;5070256;28;20533;-68
2023/09/07 03:39:39;;;;;;;12.77;6.27;;;12.60;99.90;;;;;;5070345;28;20528;-70
2023/09/07 03:42:09;;;;;;;13.00;6.30;;;12.50;99.90;;;;;;5069922;28;20860;-69
2023/09/07 03:44:36;;;;;;;11.93;6.70;;;12.60;99.90;;;;;;5069681;28;20979;-67
2023/09/07 03:47:05;;;;;;;12.50;6.33;;;12.60;99.90;;;;;;5070015;28;20814;-68
2023/09/07 03:49:33;;;;;;;11.73;6.40;;;12.60;99.90;;;;;;5069962;28;20844;-70
2023/09/07 03:52:01;;;;;;;15.27;7.20;;;12.50;99.90;;;;;;5069992;28;20501;-70
2023/09/07 03:54:32;;;;;;;12.43;6.50;;;12.50;99.90;;;;;;5069651;28;21081;-70
2023/09/07 03:57:00;;;;;;;12.70;6.57;;;12.50;99.90;;;;;;5069894;28;20941;-69
2023/09/07 03:59:30;;;;;;;11.57;6.20;;;12.50;99.90;;;;;;5062385;28;20463;-70
2023/09/07 04:01:58;;;;;;;13.87;6.63;;;12.50;99.90;;;;;;5069442;28;20470;-69
2023/09/07 04:04:26;;;;;;;11.93;6.40;;;12.50;99.90;;;;;;5060211;28;21000;-69
2023/09/07 04:06:54;;;;;;;12.00;6.90;;;12.30;99.90;;;;;;5069565;28;20535;-68
2023/09/07 04:09:22;;;;;;;13.23;6.47;;;12.20;99.90;;;;;;5066212;28;20465;-69
2023/09/07 04:11:51;;;;;;;12.30;6.60;;;12.20;99.90;;;;;;5069603;28;20543;-70
2023/09/07 04:14:19;;;;;;;13.90;7.00;;;12.30;99.90;;;;;;5069170;28;20443;-69
2023/09/07 04:16:50;;;;;;;11.23;6.83;;;12.30;99.90;;;;;;5063405;28;20443;-69
2023/09/07 04:19:18;;;;;;;12.10;6.40;;;12.30;99.90;;;;;;5069284;28;20468;-70
2023/09/07 04:21:46;;;;;;;13.10;6.90;;;12.30;99.90;;;;;;5069622;28;20854;-70
2023/09/07 04:24:14;;;;;;;13.13;6.07;;;12.40;99.90;;;;;;5069193;28;20550;-70
2023/09/07 04:26:42;;;;;;;11.77;6.27;;;12.30;99.90;;;;;;5069737;28;20453;-70
2023/09/07 04:29:11;;;;;;;11.50;5.83;;;12.30;99.90;;;;;;5069179;28;21249;-69
2023/09/07 04:31:39;;;;;;;11.63;6.10;;;12.30;99.90;;;;;;5069469;28;20439;-69
2023/09/07 04:34:09;;;;;;;14.87;6.83;;;12.30;99.90;;;;;;5069225;28;20486;-69
2023/09/07 04:36:37;;;;;;;12.00;6.83;;;12.20;99.90;;;;;;5069301;28;20443;-69
2023/09/07 04:39:05;;;;;;;13.80;7.43;;;12.40;99.90;;;;;;5069381;28;20463;-70
2023/09/07 04:41:33;;;;;;;13.27;6.40;;;12.50;99.90;;;;;;5069122;28;20451;-70
2023/09/07 04:44:01;;;;;;;13.03;7.17;;;12.40;99.90;;;;;;5069330;28;20506;-69
2023/09/07 04:46:29;;;;;;;16.90;10.73;;;12.30;99.90;;;;;;5069480;28;20887;-69
2023/09/07 04:48:57;;;;;;;12.80;6.97;;;12.30;99.90;;;;;;5069633;28;20527;-70
2023/09/07 04:51:27;;;;;;;16.67;6.67;;;12.30;99.90;;;;;;5066763;28;20963;-69
2023/09/07 04:53:54;;;;;;;14.10;6.60;;;12.30;99.90;;;;;;5065552;28;20466;-71
2023/09/07 04:56:23;;;;;;;12.47;6.70;;;12.20;99.90;;;;;;5070086;28;20669;-69
2023/09/07 04:58:51;;;;;;;12.30;6.80;;;12.30;99.90;;;;;;5072986;28;20493;-70
2023/09/07 05:01:19;;;;;;;12.07;6.53;;;12.20;99.90;;;;;;5069559;28;20440;-69
2023/09/07 05:03:47;;;;;;;12.20;5.97;;;12.20;99.90;;;;;;5068550;28;20565;-70
2023/09/07 05:06:15;;;;;;;12.77;6.50;;;12.30;99.90;;;;;;5069066;28;20478;-70
2023/09/07 05:08:45;;;;;;;12.20;6.17;;;12.20;99.90;;;;;;5067735;28;20481;-71
2023/09/07 05:11:12;;;;;;;12.53;6.63;;;12.30;99.90;;;;;;5068559;28;20838;-70
2023/09/07 05:13:40;;;;;;;12.60;6.87;;;12.30;99.90;;;;;;5070607;28;20862;-69
2023/09/07 05:16:09;;;;;;;13.23;6.60;;;12.40;99.90;;;;;;5072861;28;20458;-69
2023/09/07 05:18:37;;;;;;;13.43;7.50;;;12.40;99.90;;;;;;5073204;28;20599;-71
2023/09/07 05:21:15;;;;;;;11.30;6.30;;;12.30;99.90;;;;;;5072103;28;20532;-68
2023/09/07 05:23:45;;;;;;;13.37;6.07;;;12.40;99.90;;;;;;5072315;28;20561;-70
2023/09/07 05:26:13;;;;;;;15.70;8.50;;;12.50;99.90;;;;;;5072456;28;20440;-70
2023/09/07 05:28:42;;;;;;;12.60;7.30;;;12.60;99.90;;;;;;5072247;28;20469;-70
2023/09/07 05:31:10;;;;;;;12.70;6.47;;;12.60;99.90;;;;;;5071830;28;20819;-72
2023/09/07 05:33:38;;;;;;;13.53;7.47;;;12.70;99.90;;;;;;5071729;28;20439;-71
2023/09/07 05:36:06;;;;;;;11.87;6.30;;;12.70;99.90;;;;;;5072403;28;20453;-70
2023/09/07 05:38:34;;;;;;;13.20;7.37;;;12.70;99.90;;;;;;5072506;28;20486;-70
2023/09/07 05:41:04;;;;;;;13.60;7.80;;;12.60;99.90;;;;;;5072175;28;20439;-70
2023/09/07 05:43:32;;;;;;;13.10;7.30;;;12.60;99.90;;;;;;5072054;28;20472;-70
2023/09/07 05:46:00;;;;;;;12.43;7.00;;;12.70;99.90;;;;;;5072316;28;20531;-70
2023/09/07 05:48:29;;;;;;;12.27;6.77;;;12.60;99.90;;;;;;5071700;28;20466;-71
2023/09/07 05:50:58;;;;;;;14.90;6.60;;;12.60;99.90;;;;;;5072558;28;20451;-70
2023/09/07 05:53:26;;;;;;;13.57;7.10;;;12.70;99.90;;;;;;5071370;28;20440;-70
2023/09/07 05:55:54;;;;;;;16.43;8.30;;;12.80;99.90;;;;;;5071665;28;20870;-70
2023/09/07 05:58:23;;;;;;;14.00;7.10;;;12.80;99.90;;;;;;5071087;28;20991;-70
2023/09/07 06:00:51;;;;;;;14.47;7.70;;;12.90;99.90;;;;;;5071797;28;20808;-70
2023/09/07 06:03:19;;;;;;;13.67;6.90;;;13.10;99.90;;;;;;5071663;28;20479;-69
2023/09/07 06:05:47;;;;;;;12.27;7.23;;;13.20;99.90;;;;;;5072014;28;20448;-69
2023/09/07 06:08:15;;;;;;;13.60;7.33;;;13.20;99.90;;;;;;5071837;28;20524;-74
2023/09/07 06:10:43;;;;;;;14.30;7.27;;;13.40;99.90;;;;;;5071288;28;20512;-70
2023/09/07 06:13:11;;;;;;;12.90;7.50;;;13.50;99.90;;;;;;5071488;28;20446;-70
2023/09/07 06:15:41;;;;;;;12.97;6.40;;;13.60;99.90;;;;;;5071626;28;20450;-70
2023/09/07 06:18:09;;;;;;;15.10;6.90;;;13.90;99.90;;;;;;5072374;28;20463;-70
2023/09/07 06:20:37;;;;;;;13.63;6.67;;;14.10;99.90;;;;;;5071947;28;20452;-70
2023/09/07 06:23:05;;;;;;;15.27;7.90;;;14.10;99.90;;;;;;5072082;28;20471;-71
2023/09/07 06:25:33;;;;;;;13.17;6.87;;;14.10;99.90;;;;;;5072184;28;20505;-71
2023/09/07 06:28:01;;;;;;;16.17;7.23;;;14.10;99.90;;;;;;5072621;28;21308;-71
2023/09/07 06:30:30;;;;;;;12.23;6.83;;;14.20;99.90;;;;;;5072727;28;20870;-72
2023/09/07 06:32:59;;;;;;;11.43;7.03;;;14.20;99.90;;;;;;5071775;28;20527;-73
2023/09/07 06:35:27;;;;;;;12.50;7.90;;;14.20;99.90;;;;;;5072020;28;20532;-70
2023/09/07 06:37:55;;;;;;;13.80;7.57;;;14.30;99.90;;;;;;5071865;28;20465;-71
2023/09/07 06:40:25;;;;;;;15.50;7.40;;;14.40;99.90;;;;;;5071858;28;20454;-72
2023/09/07 06:42:54;;;;;;;14.57;7.90;;;14.50;99.90;;;;;;5071221;28;20540;-72
2023/09/07 06:45:23;;;;;;;14.47;8.23;;;14.70;99.90;;;;;;5071143;28;20446;-72
2023/09/07 06:47:52;;;;;;;15.63;8.60;;;14.80;99.90;;;;;;5071451;28;20545;-70
2023/09/07 06:50:22;;;;;;;14.10;7.23;;;14.90;99.90;;;;;;5071135;28;20442;-71
2023/09/07 06:52:51;;;;;;;13.30;8.00;;;15.20;99.90;;;;;;5071026;28;20439;-71
2023/09/07 06:55:19;;;;;;;11.80;6.03;;;15.30;99.90;;;;;;5071115;28;20506;-73
2023/09/07 06:57:47;;;;;;;16.37;7.93;;;15.40;99.90;;;;;;5071361;28;20458;-71
2023/09/07 07:00:16;;;;;;;12.07;6.80;;;15.40;99.90;;;;;;5071212;28;20810;-71
2023/09/07 07:02:44;;;;;;;14.10;6.97;;;15.50;99.90;;;;;;5070936;28;20435;-71
2023/09/07 07:05:12;;;;;;;12.13;6.93;;;15.70;99.90;;;;;;5071024;28;20509;-72
2023/09/07 07:07:41;;;;;;;12.50;6.70;;;15.70;99.90;;;;;;5070744;28;21032;-74
2023/09/07 07:10:09;;;;;;;11.83;7.03;;;15.80;99.90;;;;;;5070176;28;20546;-74
2023/09/07 07:12:40;;;;;;;13.50;6.60;;;15.80;99.90;;;;;;5070956;28;20462;-74
2023/09/07 07:15:09;;;;;;;10.70;6.20;;;16.00;99.90;;;;;;5070937;28;20447;-73
2023/09/07 07:17:37;;;;;;;13.37;6.90;;;16.10;99.90;;;;;;5070502;28;20797;-74
2023/09/07 07:20:06;;;;;;;12.00;5.90;;;16.30;99.90;;;;;;5070991;28;20458;-73
2023/09/07 07:22:35;;;;;;;14.27;7.83;;;16.50;99.90;;;;;;5070208;28;20443;-73
2023/09/07 07:25:05;;;;;;;12.03;6.30;;;16.60;99.90;;;;;;5070692;28;20846;-72
2023/09/07 07:27:33;;;;;;;10.53;6.90;;;16.80;99.90;;;;;;5070347;28;20439;-73
2023/09/07 07:30:02;;;;;;;11.77;6.20;;;17.00;99.90;;;;;;5070340;28;20471;-74
2023/09/07 07:32:30;;;;;;;13.63;5.77;;;17.20;99.90;;;;;;5069937;28;20482;-74
2023/09/07 07:34:58;;;;;;;11.27;5.70;;;17.40;99.90;;;;;;5070849;28;20470;-72
2023/09/07 07:37:26;;;;;;;10.73;5.93;;;17.50;99.90;;;;;;5068579;28;20446;-74
2023/09/07 07:39:55;;;;;;;10.50;6.40;;;17.70;99.90;;;;;;5068699;28;20856;-74
2023/09/07 07:42:24;;;;;;;11.50;6.50;;;17.80;99.90;;;;;;5070297;28;20447;-75
2023/09/07 07:44:52;;;;;;;10.90;6.00;;;17.90;99.90;;;;;;5069910;28;20520;-74
2023/09/07 07:47:20;;;;;;;12.53;6.10;;;18.10;99.90;;;;;;5070543;28;20455;-74
2023/09/07 07:49:48;;;;;;;11.67;5.63;;;18.30;99.90;;;;;;5070555;28;20442;-74
2023/09/07 07:52:16;;;;;;;13.40;6.03;;;18.50;99.90;;;;;;5068173;28;20509;-73
2023/09/07 07:54:44;;;;;;;10.13;5.70;;;18.70;99.90;;;;;;5064541;28;20447;-72
2023/09/07 07:57:12;;;;;;;9.70;6.00;;;18.90;99.90;;;;;;5070743;28;20517;-70
2023/09/07 07:59:42;;;;;;;10.40;5.93;;;19.00;99.90;;;;;;5071704;28;20470;-72
2023/09/07 08:02:10;;;;;;;11.90;6.40;;;19.30;99.90;;;;;;5070397;28;20437;-75
2023/09/07 08:04:38;;;;;;;10.13;5.50;;;19.50;99.90;;;;;;5070412;28;20270;-76
2023/09/07 08:07:08;;;;;;;12.80;6.10;;;19.60;99.90;;;;;;5070201;28;20435;-76
2023/09/07 08:09:36;;;;;;;10.20;5.57;;;19.80;99.90;;;;;;5070714;28;20481;-77
2023/09/07 08:12:05;;;;;;;12.83;6.10;;;19.90;99.90;;;;;;5069988;28;20933;-75
2023/09/07 08:14:33;;;;;;;13.43;5.30;;;20.00;99.90;;;;;;5070121;28;20501;-74
2023/09/07 08:17:02;;;;;;;10.63;6.37;;;20.10;99.90;;;;;;5070129;28;20455;-73
2023/09/07 08:19:32;;;;;;;12.60;5.97;;;20.10;99.90;;;;;;5070044;28;20465;-74
2023/09/07 08:22:03;;;;;;;10.37;6.60;;;20.30;99.90;;;;;;5071227;28;20509;-75
2023/09/07 08:24:31;;;;;;;12.77;6.10;;;20.30;99.90;;;;;;5070682;28;20482;-73
2023/09/07 08:27:00;;;;;;;12.87;6.03;;;20.50;99.90;;;;;;5069270;28;20440;-73
2023/09/07 08:29:31;;;;;;;10.50;6.03;;;20.70;99.90;;;;;;5068832;28;20463;-73
2023/09/07 08:32:04;;;;;;;10.33;6.00;;;20.90;99.90;;;;;;5070413;28;20451;-72
2023/09/07 08:34:35;;;;;;;14.07;6.10;;;20.90;99.90;;;;;;5069303;28;20818;-73
2023/09/07 08:37:06;;;;;;;10.90;5.93;;;21.00;99.90;;;;;;5068256;28;20462;-73
2023/09/07 08:39:34;;;;;;;13.70;6.10;;;21.10;99.90;;;;;;5069505;28;20980;-73
2023/09/07 08:42:04;;;;;;;10.40;6.03;;;21.40;99.90;;;;;;5069789;28;20427;-73
2023/09/07 08:44:35;;;;;;;16.63;6.10;;;21.50;99.90;;;;;;5077266;28;20479;-73
2023/09/07 08:47:05;;;;;;;12.50;6.60;;;21.60;99.90;;;;;;5078025;28;20481;-74
2023/09/07 08:49:34;;;;;;;13.17;6.97;;;21.70;99.90;;;;;;5076929;28;20467;-75
2023/09/07 08:52:04;;;;;;;12.43;6.60;;;21.90;99.90;;;;;;5076337;28;20509;-73
2023/09/07 08:54:33;;;;;;;10.50;5.77;;;22.00;99.90;;;;;;5084078;28;20427;-73
2023/09/07 08:57:04;;;;;;;12.30;6.83;;;22.00;99.90;;;;;;5085300;28;20942;-73
2023/09/07 08:59:32;;;;;;;10.63;6.23;;;22.30;99.90;;;;;;5081151;28;20497;-73
2023/09/07 09:02:00;;;;;;;9.50;6.03;;;22.40;99.90;;;;;;5082020;28;20465;-72
2023/09/07 09:04:30;;;;;;;9.60;5.63;;;22.60;99.90;;;;;;5083436;28;20527;-75
2023/09/07 09:07:01;;;;;;;11.57;6.50;;;22.70;99.90;;;;;;5082425;28;20444;-75
2023/09/07 09:09:31;;;;;;;10.20;6.07;;;23.00;99.90;;;;;;5083055;28;20494;-76
2023/09/07 09:12:08;;;;;;;10.40;6.00;;;23.20;99.90;;;;;;5065845;28;20533;-74
2023/09/07 09:14:36;;;;;;;11.87;6.47;;;23.30;99.90;;;;;;5076032;28;20455;-74
2023/09/07 09:17:04;;;;;;;11.33;6.47;;;23.50;99.90;;;;;;5072085;28;20458;-74
2023/09/07 09:19:33;;;;;;;9.07;5.27;;;23.70;99.90;;;;;;5073051;28;20474;-75
2023/09/07 09:22:03;;;;;;;9.70;6.30;;;24.10;99.90;;;;;;5084395;28;20446;-76
2023/09/07 09:24:34;;;;;;;12.13;6.63;;;24.70;99.90;;;;;;5087845;28;20841;-76
2023/09/07 09:27:02;;;;;;;10.83;6.03;;;25.30;99.90;;;;;;5085124;28;20423;-76
2023/09/07 09:29:32;;;;;;;10.70;6.30;;;25.60;99.90;;;;;;5079517;28;20458;-74
2023/09/07 09:32:04;;;;;;;10.30;5.90;;;25.90;99.90;;;;;;5067365;28;20459;-75
2023/09/07 09:34:34;;;;;;;10.53;6.80;;;26.10;99.90;;;;;;5067740;28;20510;-73
2023/09/07 09:37:06;;;;;;;11.07;6.17;;;26.50;99.90;;;;;;5066216;28;20452;-72
2023/09/07 09:39:35;;;;;;;11.57;6.33;;;26.80;99.90;;;;;;5062501;28;20724;-72
2023/09/07 09:42:04;;;;;;;13.43;6.57;;;26.90;99.90;;;;;;5064321;28;20502;-74
2023/09/07 09:44:36;;;;;;;9.80;5.77;;;27.00;99.90;;;;;;5065464;28;20501;-73
2023/09/07 09:47:05;;;;;;;12.63;7.10;;;27.10;99.00;;;;;;5069230;28;20892;-74
2023/09/07 09:49:33;;;;;;;10.67;6.37;;;27.00;99.00;;;;;;5067885;28;20512;-72
2023/09/07 09:52:02;;;;;;;10.83;6.37;;;27.30;98.90;;;;;;5067943;28;20531;-72
2023/09/07 09:54:34;;;;;;;11.30;6.50;;;27.60;97.50;;;;;;5064197;28;21006;-73
2023/09/07 09:57:02;;;;;;;9.43;6.00;;;27.80;95.60;;;;;;5069213;28;20435;-73
2023/09/07 09:59:31;;;;;;;11.00;6.07;;;28.10;95.00;;;;;;5068094;28;20451;-74
2023/09/07 10:02:00;;;;;;;9.27;6.00;;;28.10;94.90;;;;;;5069173;28;20501;-73
2023/09/07 10:04:29;;;;;;;10.90;6.47;;;27.90;93.40;;;;;;5067500;28;20457;-74
2023/09/07 10:07:01;;;;;;;11.07;6.90;;;28.10;94.60;;;;;;5067824;28;20505;-75
2023/09/07 10:09:33;;;;;;;12.70;6.73;;;28.10;91.90;;;;;;5057912;28;20551;-75
2023/09/07 10:12:07;;;;;;;11.10;6.37;;;27.90;90.90;;;;;;5068103;28;20996;-74
2023/09/07 10:14:44;;;;;;;9.57;6.33;;;28.20;92.80;;;;;;5064189;28;20442;-73
2023/09/07 10:17:23;;;;;;;9.80;6.20;;;28.50;91.70;;;;;;5061309;28;20500;-72
2023/09/07 10:19:52;;;;;;;11.53;6.17;;;28.60;91.00;;;;;;5065332;28;20442;-72
2023/09/07 10:22:23;;;;;;;9.53;5.50;;;29.00;87.30;;;;;;5054184;28;20547;-72
2023/09/07 10:24:59;;;;;;;11.70;6.27;;;28.90;85.50;;;;;;5061593;28;20513;-71
2023/09/07 10:27:38;;;;;;;9.60;5.50;;;28.80;84.30;;;;;;5061882;28;20843;-74
2023/09/07 10:30:12;;;;;;;9.80;5.67;;;28.90;87.60;;;;;;5062052;28;20916;-74
2023/09/07 10:32:41;;;;;;;9.80;6.03;;;29.10;87.30;;;;;;5061065;28;20472;-73
2023/09/07 10:35:17;;;;;;;10.23;5.80;;;29.30;85.70;;;;;;5065309;28;20848;-73
2023/09/07 10:37:47;;;;;;;9.90;5.53;;;29.70;83.90;;;;;;5062627;28;20458;-73
2023/09/07 10:40:22;;;;;;;11.73;6.07;;;29.40;80.30;;;;;;5061574;28;20480;-71
2023/09/07 10:42:50;;;;;;;9.50;5.43;;;29.20;80.90;;;;;;5062360;28;20449;-74
2023/09/07 10:45:18;;;;;;;8.67;5.33;;;29.40;77.60;;;;;;5065781;28;20515;-74
2023/09/07 10:47:47;;;;;;;10.30;5.20;;;29.80;77.90;;;;;;5058686;28;20466;-74
2023/09/07 10:50:16;;;;;;;9.00;5.03;;;30.20;77.70;;;;;;5061614;28;20510;-73
2023/09/07 10:52:44;;;;;;;9.83;5.93;;;30.50;76.90;;;;;;5065120;28;20550;-74
2023/09/07 10:55:13;;;;;;;9.17;5.20;;;30.90;73.40;;;;;;5064811;28;20503;-74
2023/09/07 10:57:47;;;;;;;9.40;5.00;;;31.40;72.20;;;;;;5062944;28;21006;-73
2023/09/07 11:00:16;;;;;;;10.97;5.80;;;31.80;67.00;;;;;;5064062;28;20435;-74
2023/09/07 11:02:44;;;;;;;9.53;5.00;;;31.80;64.60;;;;;;5065200;28;20902;-74
2023/09/07 11:05:13;;;;;;;10.03;5.00;;;31.90;66.90;;;;;;5062540;28;20435;-74
2023/09/07 11:07:43;;;;;;;11.87;6.03;;;32.30;63.40;;;;;;5060500;28;20542;-75
2023/09/07 11:10:11;;;;;;;11.73;5.37;;;32.50;66.20;;;;;;5058341;28;20462;-74
2023/09/07 11:12:40;;;;;;;8.70;4.90;;;32.50;61.70;;;;;;5061398;28;20443;-74
2023/09/07 11:15:11;;;;;;;10.50;5.10;;;32.80;62.70;;;;;;5058567;28;20933;-73
2023/09/07 11:17:40;;;;;;;9.40;5.43;;;33.00;60.10;;;;;;5059797;28;20451;-74
2023/09/07 11:20:10;;;;;;;10.87;5.80;;;33.10;59.20;;;;;;5057942;28;20975;-73
2023/09/07 11:22:39;;;;;;;9.80;5.27;;;33.30;58.40;;;;;;5063468;28;20995;-75
2023/09/07 11:25:26;;;;;;;8.83;5.40;;;33.50;57.30;;;;;;5059324;28;20869;-74
2023/09/07 11:27:54;;;;;;;8.63;5.27;;;34.00;59.70;;;;;;5054740;28;20460;-73
2023/09/07 11:30:24;;;;;;;9.40;5.57;;;33.80;56.30;;;;;;5065911;28;20432;-73
2023/09/07 11:33:02;;;;;;;9.53;5.40;;;33.90;57.10;;;;;;5060778;28;20863;-74
2023/09/07 11:35:30;;;;;;;10.30;5.07;;;33.50;56.00;;;;;;5061609;28;20439;-73
2023/09/07 11:38:00;;;;;;;9.40;4.87;;;33.50;57.30;;;;;;5061676;28;20547;-75
2023/09/07 11:40:28;;;;;;;8.93;4.80;;;34.10;56.50;;;;;;5065479;28;20435;-75
2023/09/07 11:42:55;;;;;;;9.80;5.30;;;33.80;53.90;;;;;;5065982;28;20475;-75
2023/09/07 11:45:25;;;;;;;9.20;5.20;;;34.20;56.80;;;;;;5053599;28;20447;-75
2023/09/07 11:47:53;;;;;;;9.77;5.10;;;34.80;53.10;;;;;;5052475;28;21025;-74
2023/09/07 11:50:25;;;;;;;8.77;4.77;;;34.40;54.50;;;;;;5062205;28;20459;-75
2023/09/07 11:52:53;;;;;;;12.40;7.30;;;34.30;55.30;;;;;;5061471;28;20530;-75
2023/09/07 11:55:21;;;;;;;9.80;5.07;;;34.40;54.30;;;;;;5061417;28;21071;-73
2023/09/07 11:57:49;;;;;;;9.07;4.90;;;34.90;55.20;;;;;;5060687;28;20467;-74
2023/09/07 12:00:18;;;;;;;9.03;5.07;;;35.50;55.00;;;;;;5050892;28;20614;-74
2023/09/07 12:02:48;;;;;;;9.00;5.20;;;35.80;51.00;;;;;;5053838;28;20435;-74
2023/09/07 12:05:17;;;;;;;9.60;5.10;;;36.00;49.70;;;;;;5058475;28;20443;-73
2023/09/07 12:07:46;;;;;;;9.63;5.20;;;36.00;50.90;;;;;;5061663;28;20562;-74
2023/09/07 12:10:14;;;;;;;9.10;5.00;;;36.40;49.10;;;;;;5064609;28;20447;-73
2023/09/07 12:12:43;;;;;;;8.60;4.80;;;36.30;47.80;;;;;;5059771;28;20444;-72
2023/09/07 12:15:12;;;;;;;9.47;6.10;;;36.40;49.30;;;;;;5046352;28;20450;-70
2023/09/07 12:17:40;;;;;;;11.37;4.93;;;36.70;50.10;;;;;;5065682;28;20439;-72
2023/09/07 12:20:13;;;;;;;8.27;4.67;;;37.30;49.00;;;;;;5059851;28;20912;-75
2023/09/07 12:22:41;;;;;;;7.60;4.20;;;37.40;47.10;;;;;;5062154;28;20443;-74
2023/09/07 12:25:10;;;;;;;9.77;4.80;;;37.80;45.60;;;;;;5062268;28;20441;-73
2023/09/07 12:27:43;;;;;;;9.60;5.27;;;38.30;46.10;;;;;;5065473;28;20479;-72
2023/09/07 12:30:23;;;;;;;9.47;5.40;;;38.70;45.20;;;;;;5056678;28;22051;-73
2023/09/07 12:32:52;;;;;;;7.87;4.47;;;38.30;44.00;;;;;;5062213;28;21164;-71
2023/09/07 12:35:22;;;;;;;9.03;5.20;;;37.00;47.20;;;;;;5061352;28;20525;-72
2023/09/07 12:37:50;;;;;;;8.93;5.23;;;37.10;45.30;;;;;;5063211;28;20479;-71
2023/09/07 12:40:18;;;;;;;10.57;5.60;;;37.20;46.70;;;;;;5063287;28;20654;-71
2023/09/07 12:42:47;;;;;;;11.67;5.60;;;37.80;45.70;;;;;;5061634;28;20431;-71
2023/09/07 12:45:15;;;;;;;9.40;5.10;;;37.10;44.60;;;;;;5062605;28;20439;-71
2023/09/07 12:47:43;;;;;;;9.40;5.27;;;35.80;46.40;;;;;;5054906;28;20479;-72